createdAt,value
2022-09-14T00:01:25.864Z,20.40
2022-09-14T00:05:27.936Z,20.34
2022-09-14T00:09:29.438Z,20.19
2022-09-14T00:13:31.490Z,20.12
2022-09-14T00:17:33.474Z,20.07
2022-09-14T00:21:39.271Z,20.02
2022-09-14T00:25:40.739Z,20.07
2022-09-14T00:29:42.344Z,20.10
2022-09-14T00:33:45.342Z,20.05
2022-09-14T00:37:50.972Z,20.13
2022-09-14T00:41:53.054Z,20.13
2022-09-14T00:45:55.113Z,20.12
2022-09-14T00:49:57.737Z,20.10
2022-09-14T00:54:02.730Z,20.08
2022-09-14T00:58:04.446Z,20.07
2022-09-14T01:02:08.967Z,20.08
2022-09-14T01:06:21.913Z,20.12
2022-09-14T01:10:29.016Z,20.17
2022-09-14T01:14:33.597Z,20.12
2022-09-14T01:18:39.006Z,20.15
2022-09-14T01:22:44.781Z,20.15
2022-09-14T01:26:58.563Z,20.13
2022-09-14T01:31:05.720Z,20.08
2022-09-14T01:35:15.214Z,20.04
2022-09-14T01:39:21.557Z,19.98
2022-09-14T01:43:35.072Z,19.89
2022-09-14T01:48:00.259Z,19.78
2022-09-14T01:52:06.390Z,19.67
2022-09-14T01:56:15.166Z,19.52
2022-09-14T02:00:19.475Z,19.45
2022-09-14T02:04:33.428Z,19.45
2022-09-14T02:08:35.501Z,19.42
2022-09-14T02:12:37.759Z,19.38
2022-09-14T02:16:43.309Z,19.43
2022-09-14T02:20:50.184Z,19.42
2022-09-14T02:24:52.468Z,19.34
2022-09-14T02:28:55.981Z,19.25
2022-09-14T02:33:02.980Z,19.27
2022-09-14T02:37:18.162Z,19.28
2022-09-14T02:41:37.182Z,19.35
2022-09-14T02:46:19.225Z,19.32
2022-09-14T02:50:58.254Z,19.34
2022-09-14T02:55:10.684Z,19.35
2022-09-14T02:59:12.659Z,19.39
2022-09-14T03:03:16.234Z,19.38
2022-09-14T03:07:17.810Z,19.40
2022-09-14T03:11:19.332Z,19.47
2022-09-14T03:15:21.011Z,19.47
2022-09-14T03:19:22.542Z,19.46
2022-09-14T03:23:24.052Z,19.45
2022-09-14T03:27:25.690Z,19.47
2022-09-14T03:31:27.288Z,19.52
2022-09-14T03:35:32.410Z,19.55
2022-09-14T03:39:33.912Z,19.57
2022-09-14T03:43:35.479Z,19.53
2022-09-14T03:47:37.036Z,19.47
2022-09-14T03:51:38.673Z,19.49
2022-09-14T03:55:41.496Z,19.47
2022-09-14T03:59:43.788Z,19.45
2022-09-14T04:03:46.359Z,19.42
2022-09-14T04:07:47.858Z,19.43
2022-09-14T04:11:49.361Z,19.35
2022-09-14T04:15:59.275Z,19.40
2022-09-14T04:20:00.881Z,19.43
2022-09-14T04:24:14.816Z,19.42
2022-09-14T04:28:20.604Z,19.39
2022-09-14T04:32:22.468Z,19.34
2022-09-14T04:36:30.921Z,19.34
2022-09-14T04:40:32.848Z,19.38
2022-09-14T04:44:34.552Z,19.42
2022-09-14T04:48:36.313Z,19.39
2022-09-14T04:52:37.850Z,19.40
2022-09-14T04:56:39.351Z,19.40
2022-09-14T05:00:40.960Z,19.42
2022-09-14T05:04:42.562Z,19.39
2022-09-14T05:08:45.165Z,19.42
2022-09-14T05:12:46.645Z,19.40
2022-09-14T05:16:48.144Z,19.30
2022-09-14T05:20:49.649Z,19.12
2022-09-14T05:24:51.152Z,19.10
2022-09-14T05:28:55.447Z,19.10
2022-09-14T05:32:58.149Z,19.10
2022-09-14T05:36:59.728Z,19.16
2022-09-14T05:41:01.441Z,19.16
2022-09-14T05:45:03.305Z,19.21
2022-09-14T05:49:04.905Z,19.20
2022-09-14T05:53:06.462Z,19.20
2022-09-14T05:57:07.994Z,19.23
2022-09-14T06:01:17.150Z,19.28
2022-09-14T06:05:19.875Z,19.32
2022-09-14T06:09:21.552Z,19.38
2022-09-14T06:13:23.429Z,19.40
2022-09-14T06:17:25.161Z,19.42
2022-09-14T06:21:32.208Z,19.45
2022-09-14T06:25:33.761Z,19.45
2022-09-14T06:29:35.515Z,19.49
2022-09-14T06:33:37.175Z,19.49
2022-09-14T06:37:38.661Z,19.52
2022-09-14T06:41:40.217Z,19.50
2022-09-14T06:45:59.826Z,19.58
2022-09-14T06:50:01.384Z,19.64
2022-09-14T06:54:03.909Z,19.62
2022-09-14T06:58:07.567Z,19.70
2022-09-14T07:02:09.817Z,19.76
2022-09-14T07:06:14.282Z,19.80
2022-09-14T07:10:15.790Z,19.83
2022-09-14T07:14:17.288Z,19.83
2022-09-14T07:18:18.835Z,19.85
2022-09-14T07:22:20.522Z,19.86
2022-09-14T07:26:30.572Z,19.90
2022-09-14T07:30:35.914Z,19.97
2022-09-14T07:34:37.458Z,20.07
2022-09-14T07:38:52.111Z,20.16
2022-09-14T07:42:57.553Z,20.17
2022-09-14T07:46:59.317Z,20.31
2022-09-14T07:51:06.201Z,20.44
2022-09-14T07:55:08.497Z,20.63
2022-09-14T08:03:33.467Z,20.90
2022-09-14T08:07:34.936Z,21.01
2022-09-14T08:11:37.005Z,21.09
2022-09-14T08:15:39.669Z,21.13
2022-09-14T08:19:41.331Z,21.22
2022-09-14T08:23:43.823Z,21.28
2022-09-14T08:27:45.333Z,21.13
2022-09-14T08:31:47.829Z,21.06
2022-09-14T08:35:58.098Z,21.03
2022-09-14T08:39:59.872Z,21.08
2022-09-14T08:44:11.807Z,21.11
2022-09-14T08:48:27.693Z,21.19
2022-09-14T08:52:40.282Z,21.26
2022-09-14T08:56:47.462Z,21.45
2022-09-14T09:00:51.932Z,21.52
2022-09-14T09:05:25.529Z,21.55
2022-09-14T09:09:38.735Z,21.61
2022-09-14T09:13:41.146Z,21.63
2022-09-14T09:17:47.116Z,21.68
2022-09-14T09:21:49.010Z,21.86
2022-09-14T09:25:57.655Z,22.01
2022-09-14T09:29:59.177Z,22.15
2022-09-14T09:34:03.885Z,22.63
2022-09-14T09:38:14.202Z,22.97
2022-09-14T09:42:30.884Z,23.01
2022-09-14T09:46:39.840Z,22.97
2022-09-14T09:51:06.685Z,23.11
2022-09-14T09:55:08.630Z,23.38
2022-09-14T09:59:35.222Z,23.50
2022-09-14T10:03:39.154Z,23.54
2022-09-14T10:07:53.556Z,23.64
2022-09-14T10:12:03.786Z,23.64
2022-09-14T10:16:17.544Z,23.71
2022-09-14T10:20:24.157Z,23.75
2022-09-14T10:24:25.919Z,23.78
2022-09-14T10:28:30.436Z,23.93
2022-09-14T10:32:33.297Z,23.90
2022-09-14T10:36:44.283Z,23.89
2022-09-14T10:40:50.139Z,23.96
2022-09-14T10:45:08.107Z,24.08
2022-09-14T10:49:57.682Z,24.12
2022-09-14T10:54:15.780Z,24.15
2022-09-14T10:58:41.005Z,24.21
2022-09-14T11:03:00.285Z,24.27
2022-09-14T11:07:01.817Z,24.37
2022-09-14T11:11:34.238Z,24.45
2022-09-14T11:15:41.294Z,24.53
2022-09-14T11:20:00.508Z,24.67
2022-09-14T11:24:19.420Z,24.83
2022-09-14T11:28:28.334Z,24.84
2022-09-14T11:32:45.720Z,24.75
2022-09-14T11:36:58.859Z,24.63
2022-09-14T11:41:17.578Z,24.70
2022-09-14T11:45:45.258Z,24.84
2022-09-14T11:50:05.608Z,24.90
2022-09-14T11:54:17.741Z,24.90
2022-09-14T11:58:25.629Z,24.94
2022-09-14T12:02:30.098Z,24.94
2022-09-14T12:06:31.578Z,24.93
2022-09-14T12:11:23.041Z,24.83
2022-09-14T12:15:24.470Z,24.64
2022-09-14T12:19:26.872Z,24.52
2022-09-14T12:23:37.554Z,24.41
2022-09-14T12:27:41.047Z,24.29
2022-09-14T12:31:47.296Z,24.16
2022-09-14T12:35:48.792Z,24.06
2022-09-14T12:40:36.310Z,24.00
2022-09-14T12:44:42.751Z,23.89
2022-09-14T12:48:47.421Z,23.82
2022-09-14T12:53:11.121Z,23.78
2022-09-14T12:57:42.860Z,23.71
2022-09-14T13:01:57.473Z,23.72
2022-09-14T13:05:59.105Z,23.74
2022-09-14T13:10:02.608Z,23.77
2022-09-14T13:14:04.617Z,23.77
2022-09-14T13:18:28.180Z,23.74
2022-09-14T13:22:31.980Z,23.68
2022-09-14T13:26:34.185Z,23.63
2022-09-14T13:30:35.957Z,23.56
2022-09-14T13:34:39.121Z,23.39
2022-09-14T13:38:43.057Z,23.09
2022-09-14T13:42:45.156Z,22.96
2022-09-14T13:46:46.877Z,22.75
2022-09-14T13:50:51.191Z,22.60
2022-09-14T13:54:56.211Z,22.48
2022-09-14T13:59:12.530Z,22.39
2022-09-14T14:03:31.397Z,22.33
2022-09-14T14:07:34.653Z,22.27
2022-09-14T14:11:39.125Z,22.30
2022-09-14T14:15:42.824Z,22.20
2022-09-14T14:19:44.389Z,22.26
2022-09-14T14:24:02.807Z,22.17
2022-09-14T14:28:22.251Z,22.14
2022-09-14T14:32:24.729Z,22.08
2022-09-14T14:36:26.252Z,22.02
2022-09-14T14:40:28.205Z,22.02
2022-09-14T14:44:30.017Z,21.94
2022-09-14T14:48:31.552Z,21.91
2022-09-14T14:52:33.061Z,21.83
2022-09-14T14:56:34.971Z,21.79
2022-09-14T15:00:38.419Z,21.75
2022-09-14T15:04:40.001Z,21.70
2022-09-14T15:08:41.867Z,21.71
2022-09-14T15:12:43.418Z,21.71
2022-09-14T15:16:45.882Z,21.67
2022-09-14T15:20:47.476Z,21.67
2022-09-14T15:24:49.066Z,21.48
2022-09-14T15:28:51.556Z,21.58
2022-09-14T15:32:53.054Z,21.45
2022-09-14T15:36:54.863Z,21.48
2022-09-14T15:40:56.450Z,21.46
2022-09-14T15:44:57.986Z,21.48
2022-09-14T15:49:03.772Z,21.51
2022-09-14T15:53:05.245Z,21.55
2022-09-14T15:57:11.082Z,21.64
2022-09-14T16:01:14.596Z,21.67
2022-09-14T16:05:18.817Z,21.70
2022-09-14T16:09:22.344Z,21.64
2022-09-14T16:13:23.932Z,21.79
2022-09-14T16:17:25.459Z,21.82
2022-09-14T16:21:27.923Z,21.81
2022-09-14T16:25:29.403Z,21.75
2022-09-14T16:29:31.058Z,21.75
2022-09-14T16:33:37.301Z,21.83
2022-09-14T16:37:38.854Z,22.04
2022-09-14T16:41:42.158Z,22.14
2022-09-14T16:45:43.734Z,22.23
2022-09-14T16:49:45.306Z,22.30
2022-09-14T16:53:48.353Z,22.33
2022-09-14T16:57:49.974Z,22.35
2022-09-14T17:01:54.665Z,22.30
2022-09-14T17:06:01.481Z,22.26
2022-09-14T17:10:03.203Z,22.19
2022-09-14T17:14:05.746Z,22.09
2022-09-14T17:18:07.463Z,21.99
2022-09-14T17:22:10.450Z,21.90
2022-09-14T17:26:14.316Z,21.81
2022-09-14T17:30:15.820Z,21.73
2022-09-14T17:34:17.694Z,21.64
2022-09-14T17:38:21.428Z,21.61
2022-09-14T17:42:22.940Z,21.59
2022-09-14T17:46:25.456Z,21.56
2022-09-14T17:50:27.224Z,21.55
2022-09-14T17:54:28.865Z,21.53
2022-09-14T17:58:30.381Z,21.51
2022-09-14T18:02:31.885Z,21.48
2022-09-14T18:06:36.020Z,21.48
2022-09-14T18:10:37.536Z,21.48
2022-09-14T18:14:39.579Z,21.46
2022-09-14T18:18:41.847Z,21.43
2022-09-14T18:22:43.335Z,21.38
2022-09-14T18:26:46.210Z,21.38
2022-09-14T18:30:48.070Z,21.37
2022-09-14T18:34:49.625Z,21.40
2022-09-14T18:38:52.892Z,21.38
2022-09-14T18:42:54.402Z,21.38
2022-09-14T18:46:56.006Z,21.36
2022-09-14T18:51:01.250Z,21.34
2022-09-14T18:55:02.883Z,21.33
2022-09-14T18:59:07.622Z,21.34
2022-09-14T19:03:09.841Z,21.34
2022-09-14T19:07:11.326Z,21.33
2022-09-14T19:11:15.956Z,21.33
2022-09-14T19:15:17.861Z,21.31
2022-09-14T19:19:19.537Z,21.31
2022-09-14T19:23:21.156Z,21.31
2022-09-14T19:27:22.652Z,21.31
2022-09-14T19:31:24.437Z,21.33
2022-09-14T19:35:27.212Z,21.31
2022-09-14T19:39:28.722Z,21.30
2022-09-14T19:43:31.793Z,21.28
2022-09-14T19:47:33.379Z,21.30
2022-09-14T19:51:35.700Z,21.30
2022-09-14T19:55:37.255Z,21.30
2022-09-14T19:59:38.786Z,21.27
2022-09-14T20:03:40.999Z,21.28
2022-09-14T20:07:43.135Z,21.28
2022-09-14T20:11:46.926Z,21.19
2022-09-14T20:15:48.527Z,20.93
2022-09-14T20:19:50.178Z,20.78
2022-09-14T20:24:16.133Z,20.69
2022-09-14T20:28:19.042Z,20.61
2022-09-14T20:32:20.619Z,20.56
2022-09-14T20:36:25.053Z,20.48
2022-09-14T20:40:26.629Z,20.42
2022-09-14T20:44:28.203Z,20.44
2022-09-14T20:48:30.682Z,20.46
2022-09-14T20:52:32.194Z,20.44
2022-09-14T20:56:34.531Z,20.40
2022-09-14T21:00:36.118Z,20.38
2022-09-14T21:04:37.916Z,20.35
2022-09-14T21:08:40.506Z,20.31
2022-09-14T21:12:42.073Z,20.27
2022-09-14T21:16:46.070Z,20.30
2022-09-14T21:20:47.728Z,20.30
2022-09-14T21:24:49.250Z,20.31
2022-09-14T21:28:55.006Z,20.31
2022-09-14T21:32:56.786Z,20.35
2022-09-14T21:36:58.495Z,20.35
2022-09-14T21:41:00.213Z,20.34
2022-09-14T21:45:01.886Z,20.33
2022-09-14T21:49:03.493Z,20.33
2022-09-14T21:53:05.073Z,20.34
2022-09-14T21:57:07.063Z,20.34
2022-09-14T22:01:09.454Z,20.35
2022-09-14T22:05:11.918Z,20.35
2022-09-14T22:09:15.247Z,20.31
2022-09-14T22:13:16.877Z,20.30
2022-09-14T22:17:18.384Z,20.26
2022-09-14T22:21:21.446Z,20.26
2022-09-14T22:25:24.918Z,20.27
2022-09-14T22:29:26.571Z,20.23
2022-09-14T22:33:28.909Z,20.22
2022-09-14T22:37:30.389Z,20.23
2022-09-14T22:41:32.346Z,20.20
2022-09-14T22:45:33.813Z,20.20
2022-09-14T22:49:35.389Z,20.23
2022-09-14T22:53:37.530Z,20.20
2022-09-14T22:57:39.081Z,20.22
2022-09-14T23:01:41.916Z,20.22
2022-09-14T23:05:58.966Z,20.23
2022-09-14T23:10:00.726Z,20.20
2022-09-14T23:14:02.210Z,20.20
2022-09-14T23:18:03.968Z,20.19
2022-09-14T23:22:05.464Z,20.20
2022-09-14T23:26:09.711Z,20.20
2022-09-14T23:30:11.800Z,20.19
2022-09-14T23:34:13.630Z,20.17
2022-09-14T23:38:15.381Z,20.17
2022-09-14T23:42:16.898Z,20.19
2022-09-14T23:46:19.094Z,20.16
2022-09-14T23:50:20.622Z,20.17
2022-09-14T23:54:22.193Z,20.19
2022-09-14T23:58:24.043Z,20.19
